createdAt,value
2023-05-05T00:02:12.264Z,15.43
2023-05-05T00:04:38.821Z,10.05
2023-05-05T00:07:05.294Z,14.27
2023-05-05T00:09:31.804Z,10.98
2023-05-05T00:11:58.290Z,14.75
2023-05-05T00:14:24.824Z,12.82
2023-05-05T00:16:51.379Z,14.60
2023-05-05T00:19:17.870Z,13.70
2023-05-05T00:21:44.327Z,12.20
2023-05-05T00:24:11.116Z,13.52
2023-05-05T00:26:37.650Z,12.73
2023-05-05T00:29:04.185Z,13.45
2023-05-05T00:31:30.683Z,10.57
2023-05-05T00:33:57.233Z,11.63
2023-05-05T00:36:23.749Z,11.20
2023-05-05T00:38:50.253Z,13.32
2023-05-05T00:41:16.702Z,8.63
2023-05-05T00:43:43.265Z,10.70
2023-05-05T00:46:22.332Z,10.98
2023-05-05T00:48:48.958Z,14.25
2023-05-05T00:51:16.855Z,11.77
2023-05-05T00:53:45.138Z,15.13
2023-05-05T00:56:12.889Z,14.48
2023-05-05T00:58:42.339Z,10.18
2023-05-05T01:01:09.398Z,11.77
2023-05-05T01:03:38.056Z,10.60
2023-05-05T01:06:22.566Z,12.23
2023-05-05T01:09:08.184Z,12.52
2023-05-05T01:11:34.599Z,13.15
2023-05-05T01:14:16.664Z,10.07
2023-05-05T01:19:49.708Z,11.75
2023-05-05T01:22:19.970Z,13.07
2023-05-05T01:25:05.406Z,14.02
2023-05-05T01:28:03.035Z,13.48
2023-05-05T01:30:57.527Z,10.93
2023-05-05T01:33:28.776Z,10.50
2023-05-05T01:35:58.258Z,9.95
2023-05-05T01:38:36.454Z,15.90
2023-05-05T01:41:17.049Z,12.98
2023-05-05T01:43:47.039Z,11.25
2023-05-05T01:46:15.885Z,8.75
2023-05-05T01:48:44.096Z,10.68
2023-05-05T01:51:12.636Z,14.13
2023-05-05T01:53:42.591Z,12.65
2023-05-05T01:56:10.641Z,14.63
2023-05-05T01:58:38.137Z,12.40
2023-05-05T02:01:05.339Z,12.15
2023-05-05T02:03:34.014Z,14.48
2023-05-05T02:06:01.630Z,14.82
2023-05-05T02:08:30.010Z,14.13
2023-05-05T02:10:57.674Z,12.00
2023-05-05T02:13:26.102Z,14.05
2023-05-05T02:15:53.344Z,12.18
2023-05-05T02:18:22.252Z,13.40
2023-05-05T02:20:48.873Z,16.60
2023-05-05T02:23:15.477Z,14.80
2023-05-05T02:25:45.738Z,10.25
2023-05-05T02:28:18.439Z,16.38
2023-05-05T02:30:59.389Z,14.20
2023-05-05T02:33:29.063Z,16.10
2023-05-05T02:36:00.043Z,12.93
2023-05-05T02:38:29.331Z,15.68
2023-05-05T02:40:57.985Z,12.93
2023-05-05T02:43:25.889Z,16.77
2023-05-05T02:45:52.378Z,12.77
2023-05-05T02:48:18.927Z,12.52
2023-05-05T02:50:45.401Z,17.35
2023-05-05T02:53:12.307Z,11.15
2023-05-05T02:55:45.515Z,15.35
2023-05-05T02:58:24.840Z,13.68
2023-05-05T03:01:18.004Z,14.35
2023-05-05T03:03:46.893Z,14.43
2023-05-05T03:06:21.296Z,15.57
2023-05-05T03:08:58.062Z,13.95
2023-05-05T03:11:35.512Z,18.83
2023-05-05T03:14:10.088Z,17.77
2023-05-05T03:16:39.442Z,15.82
2023-05-05T03:19:08.569Z,13.60
2023-05-05T03:21:35.487Z,14.98
2023-05-05T03:24:12.242Z,15.10
2023-05-05T03:26:38.687Z,15.90
2023-05-05T03:29:06.865Z,16.42
2023-05-05T03:31:33.537Z,15.52
2023-05-05T03:34:00.279Z,16.52
2023-05-05T03:36:29.413Z,19.25
2023-05-05T03:38:56.196Z,14.85
2023-05-05T03:41:23.629Z,15.38
2023-05-05T03:43:50.910Z,13.15
2023-05-05T03:46:17.494Z,13.95
2023-05-05T03:48:44.054Z,16.48
2023-05-05T03:51:10.621Z,14.82
2023-05-05T03:53:37.047Z,16.88
2023-05-05T03:56:03.698Z,19.52
2023-05-05T03:58:30.951Z,16.67
2023-05-05T04:00:57.485Z,17.13
2023-05-05T04:03:25.477Z,17.83
2023-05-05T04:05:52.130Z,16.80
2023-05-05T04:08:18.585Z,16.38
2023-05-05T04:10:48.974Z,19.52
2023-05-05T04:13:15.565Z,13.68
2023-05-05T04:15:48.304Z,20.85
2023-05-05T04:18:14.775Z,18.02
2023-05-05T04:20:41.329Z,15.35
2023-05-05T04:23:07.975Z,20.15
2023-05-05T04:25:34.530Z,17.70
2023-05-05T04:28:01.109Z,17.73
2023-05-05T04:30:27.628Z,16.88
2023-05-05T04:32:54.125Z,16.48
2023-05-05T04:35:21.227Z,18.50
2023-05-05T04:37:47.775Z,20.77
2023-05-05T04:40:14.414Z,19.88
2023-05-05T04:42:40.891Z,15.65
2023-05-05T04:45:08.876Z,25.10
2023-05-05T04:47:39.523Z,20.33
2023-05-05T04:50:07.226Z,18.20
2023-05-05T04:52:34.155Z,19.17
2023-05-05T04:55:01.137Z,17.88
2023-05-05T04:57:27.851Z,18.58
2023-05-05T04:59:54.366Z,18.38
2023-05-05T05:02:21.035Z,20.38
2023-05-05T05:04:47.536Z,19.88
2023-05-05T05:07:15.085Z,23.35
2023-05-05T05:09:41.620Z,14.88
2023-05-05T05:12:09.694Z,19.08
2023-05-05T05:14:43.296Z,19.55
2023-05-05T05:17:09.929Z,19.02
2023-05-05T05:19:36.397Z,20.15
2023-05-05T05:22:02.914Z,17.27
2023-05-05T05:24:29.952Z,19.30
2023-05-05T05:26:56.474Z,20.33
2023-05-05T05:29:23.012Z,16.95
2023-05-05T05:31:50.165Z,14.93
2023-05-05T05:34:16.756Z,14.68
2023-05-05T05:36:43.234Z,19.25
2023-05-05T05:39:09.729Z,15.63
2023-05-05T05:41:36.219Z,16.60
2023-05-05T05:44:05.580Z,16.58
2023-05-05T05:46:32.133Z,14.15
2023-05-05T05:48:58.612Z,14.63
2023-05-05T05:51:25.101Z,19.25
2023-05-05T05:53:51.803Z,22.48
2023-05-05T05:56:18.387Z,17.08
2023-05-05T05:58:45.280Z,16.80
2023-05-05T06:01:12.134Z,19.17
2023-05-05T06:03:38.694Z,16.58
2023-05-05T06:06:05.308Z,18.20
2023-05-05T06:08:31.918Z,15.90
2023-05-05T06:11:00.411Z,19.98
2023-05-05T06:13:26.923Z,12.98
2023-05-05T06:15:53.493Z,15.10
2023-05-05T06:18:20.232Z,21.85
2023-05-05T06:20:49.486Z,18.70
2023-05-05T06:23:16.035Z,20.58
2023-05-05T06:25:42.534Z,20.60
2023-05-05T06:28:09.105Z,16.35
2023-05-05T06:30:35.569Z,15.38
2023-05-05T06:33:02.201Z,16.25
2023-05-05T06:35:30.264Z,15.82
2023-05-05T06:37:56.734Z,15.55
2023-05-05T06:40:23.331Z,15.70
2023-05-05T06:42:49.808Z,18.08
2023-05-05T06:45:16.601Z,14.75
2023-05-05T06:47:44.238Z,15.57
2023-05-05T06:50:11.336Z,17.20
2023-05-05T06:52:37.966Z,13.85
2023-05-05T06:55:04.743Z,17.65
2023-05-05T06:57:31.258Z,16.73
2023-05-05T06:59:57.850Z,19.05
2023-05-05T07:02:26.711Z,15.95
2023-05-05T07:04:55.298Z,25.77
2023-05-05T07:07:21.910Z,17.73
2023-05-05T07:09:48.338Z,13.90
2023-05-05T07:12:14.809Z,17.23
2023-05-05T07:14:41.281Z,14.48
2023-05-05T07:17:07.719Z,17.20
2023-05-05T07:19:34.197Z,17.77
2023-05-05T07:22:00.688Z,19.83
2023-05-05T07:24:27.172Z,14.40
2023-05-05T07:26:53.685Z,17.85
2023-05-05T07:29:20.234Z,17.52
2023-05-05T07:31:46.872Z,17.73
2023-05-05T07:34:16.159Z,16.95
2023-05-05T07:36:42.725Z,18.05
2023-05-05T07:39:09.288Z,18.52
2023-05-05T07:41:35.780Z,17.90
2023-05-05T07:44:02.357Z,19.63
2023-05-05T07:46:28.928Z,20.88
2023-05-05T07:48:55.588Z,17.05
2023-05-05T07:51:22.142Z,18.77
2023-05-05T07:53:48.665Z,21.55
2023-05-05T07:56:15.183Z,14.75
2023-05-05T07:58:42.240Z,16.92
2023-05-05T08:01:10.969Z,16.83
2023-05-05T08:03:37.862Z,18.92
2023-05-05T08:06:09.702Z,18.17
2023-05-05T08:08:36.816Z,11.68
2023-05-05T08:11:04.001Z,16.73
2023-05-05T08:13:30.755Z,16.13
2023-05-05T08:15:57.412Z,21.27
2023-05-05T08:18:24.554Z,15.02
2023-05-05T08:20:51.246Z,17.70
2023-05-05T08:23:17.810Z,17.38
2023-05-05T08:25:44.465Z,16.02
2023-05-05T08:28:11.357Z,20.30
2023-05-05T08:30:38.310Z,17.30
2023-05-05T08:33:04.784Z,16.65
2023-05-05T08:35:31.325Z,21.50
2023-05-05T08:37:59.290Z,17.65
2023-05-05T08:40:32.262Z,16.58
2023-05-05T08:42:59.230Z,18.90
2023-05-05T08:45:28.089Z,17.75
2023-05-05T08:48:01.156Z,17.75
2023-05-05T08:50:29.651Z,20.67
2023-05-05T08:53:10.967Z,18.23
2023-05-05T08:55:56.074Z,20.00
2023-05-05T08:58:29.130Z,19.27
2023-05-05T09:00:56.497Z,20.10
2023-05-05T09:03:24.842Z,19.63
2023-05-05T09:05:51.837Z,21.05
2023-05-05T09:08:18.689Z,17.85
2023-05-05T09:10:46.108Z,20.77
2023-05-05T09:13:13.187Z,23.13
2023-05-05T09:15:41.328Z,18.38
2023-05-05T09:18:12.316Z,20.33
2023-05-05T09:20:40.032Z,20.33
2023-05-05T09:23:17.569Z,18.98
2023-05-05T09:25:46.378Z,22.15
2023-05-05T09:28:17.673Z,24.00
2023-05-05T09:30:46.039Z,17.10
2023-05-05T09:33:13.540Z,20.73
2023-05-05T09:35:50.775Z,21.00
2023-05-05T09:38:18.651Z,19.55
2023-05-05T09:40:47.718Z,18.75
2023-05-05T09:43:15.244Z,18.90
2023-05-05T09:45:41.908Z,21.58
2023-05-05T09:48:22.764Z,18.73
2023-05-05T09:50:49.564Z,18.48
2023-05-05T09:53:16.126Z,24.38
2023-05-05T09:55:52.979Z,23.45
2023-05-05T09:58:20.721Z,21.85
2023-05-05T10:00:47.674Z,17.40
2023-05-05T10:03:14.525Z,20.17
2023-05-05T10:05:51.966Z,25.42
2023-05-05T10:08:24.508Z,21.70
2023-05-05T10:11:01.431Z,22.00
2023-05-05T10:13:28.108Z,17.48
2023-05-05T10:15:56.690Z,23.85
2023-05-05T10:18:28.528Z,17.38
2023-05-05T10:23:23.947Z,16.77
2023-05-05T10:25:55.203Z,21.77
2023-05-05T10:28:32.993Z,19.45
2023-05-05T10:31:07.641Z,19.73
2023-05-05T10:33:47.784Z,18.33
2023-05-05T10:36:14.940Z,21.85
2023-05-05T10:38:42.976Z,19.60
2023-05-05T10:41:11.568Z,21.05
2023-05-05T10:43:38.586Z,17.20
2023-05-05T10:46:06.249Z,18.55
2023-05-05T10:48:46.088Z,20.52
2023-05-05T10:51:39.261Z,20.77
2023-05-05T10:54:50.427Z,21.23
2023-05-05T10:57:22.322Z,22.33
2023-05-05T11:02:22.100Z,22.75
2023-05-05T11:05:09.314Z,21.88
2023-05-05T11:07:36.763Z,21.85
2023-05-05T11:10:05.665Z,18.40
2023-05-05T11:12:53.289Z,21.10
2023-05-05T11:15:26.036Z,22.80
2023-05-05T11:17:53.643Z,18.73
2023-05-05T11:20:35.905Z,21.00
2023-05-05T11:23:02.361Z,23.23
2023-05-05T11:25:34.673Z,21.77
2023-05-05T11:28:11.191Z,20.48
2023-05-05T11:30:59.366Z,20.42
2023-05-05T11:33:26.378Z,25.08
2023-05-05T11:36:06.144Z,24.60
2023-05-05T11:38:36.065Z,20.25
2023-05-05T11:41:14.431Z,19.88
2023-05-05T11:43:41.793Z,19.13
2023-05-05T11:46:16.142Z,26.25
2023-05-05T11:48:49.949Z,19.88
2023-05-05T11:51:18.099Z,22.40
2023-05-05T11:53:47.275Z,25.42
2023-05-05T11:56:18.962Z,19.90
2023-05-05T11:58:46.769Z,21.65
2023-05-05T12:01:13.598Z,20.70
2023-05-05T12:03:41.116Z,22.40
2023-05-05T12:06:08.600Z,22.33
2023-05-05T12:08:39.306Z,25.13
2023-05-05T12:11:07.692Z,23.60
2023-05-05T12:13:34.825Z,22.75
2023-05-05T12:16:16.586Z,19.58
2023-05-05T12:18:43.189Z,23.23
2023-05-05T12:21:20.125Z,29.30
2023-05-05T12:23:46.962Z,24.33
2023-05-05T12:26:29.679Z,20.90
2023-05-05T12:28:57.572Z,20.60
2023-05-05T12:31:40.349Z,23.88
2023-05-05T12:34:08.988Z,23.38
2023-05-05T12:36:36.635Z,20.60
2023-05-05T12:39:05.035Z,23.25
2023-05-05T12:41:32.339Z,20.55
2023-05-05T12:44:00.105Z,19.98
2023-05-05T12:46:29.574Z,21.02
2023-05-05T12:49:06.738Z,24.55
2023-05-05T12:51:34.671Z,21.60
2023-05-05T12:54:11.730Z,21.80
2023-05-05T12:56:43.992Z,27.20
2023-05-05T12:59:12.637Z,24.42
2023-05-05T13:01:50.912Z,27.80
2023-05-05T13:04:19.369Z,22.15
2023-05-05T13:06:51.744Z,31.63
2023-05-05T13:09:28.222Z,27.08
2023-05-05T13:11:54.831Z,22.35
2023-05-05T13:14:21.655Z,22.48
2023-05-05T13:16:48.499Z,28.00
2023-05-05T13:19:15.347Z,23.05
2023-05-05T13:21:41.900Z,20.63
2023-05-05T13:24:23.482Z,23.98
2023-05-05T13:26:55.854Z,29.73
2023-05-05T13:29:24.251Z,20.48
2023-05-05T13:31:52.692Z,22.45
2023-05-05T13:34:19.235Z,19.77
2023-05-05T13:36:45.899Z,16.33
2023-05-05T13:39:12.726Z,22.55
2023-05-05T13:41:39.402Z,21.23
2023-05-05T13:44:05.952Z,22.45
2023-05-05T13:46:32.653Z,20.05
2023-05-05T13:48:59.207Z,22.23
2023-05-05T13:51:28.491Z,17.52
2023-05-05T13:53:55.123Z,20.02
2023-05-05T13:56:27.524Z,20.55
2023-05-05T13:58:54.423Z,18.38
2023-05-05T14:01:21.105Z,22.88
2023-05-05T14:03:47.654Z,20.88
2023-05-05T14:06:14.105Z,22.05
2023-05-05T14:08:40.580Z,20.70
2023-05-05T14:11:07.023Z,18.75
2023-05-05T14:13:33.488Z,20.02
2023-05-05T14:15:59.952Z,18.13
2023-05-05T14:18:26.879Z,18.00
2023-05-05T14:20:53.449Z,18.42
2023-05-05T14:23:19.934Z,20.88
2023-05-05T14:25:46.504Z,23.40
2023-05-05T14:28:12.977Z,17.80
2023-05-05T14:30:39.903Z,19.85
2023-05-05T14:33:06.875Z,21.98
2023-05-05T14:35:33.430Z,17.27
2023-05-05T14:37:59.895Z,17.10
2023-05-05T14:40:26.417Z,18.77
2023-05-05T14:42:52.928Z,21.35
2023-05-05T14:45:19.441Z,18.95
2023-05-05T14:47:45.992Z,22.27
2023-05-05T14:50:14.037Z,20.92
2023-05-05T14:52:40.929Z,17.27
2023-05-05T14:55:08.111Z,17.13
2023-05-05T14:57:34.771Z,22.20
2023-05-05T15:00:01.446Z,17.83
2023-05-05T15:02:27.991Z,20.20
2023-05-05T15:04:54.534Z,19.02
2023-05-05T15:07:22.552Z,18.63
2023-05-05T15:09:49.122Z,21.15
2023-05-05T15:12:15.689Z,16.48
2023-05-05T15:14:42.216Z,36.65
2023-05-05T15:17:08.716Z,23.95
2023-05-05T15:19:35.218Z,19.17
2023-05-05T15:22:01.777Z,16.58
2023-05-05T15:24:28.281Z,20.30
2023-05-05T15:26:54.780Z,20.08
2023-05-05T15:29:21.495Z,20.20
2023-05-05T15:31:48.032Z,21.77
2023-05-05T15:34:14.502Z,20.35
2023-05-05T15:36:40.955Z,18.23
2023-05-05T15:39:07.565Z,16.20
2023-05-05T15:41:34.488Z,16.90
2023-05-05T15:44:03.077Z,17.33
2023-05-05T15:46:33.369Z,23.77
2023-05-05T15:49:00.309Z,27.17
2023-05-05T15:51:27.288Z,18.40
2023-05-05T15:53:53.832Z,24.95
2023-05-05T15:56:20.372Z,25.48
2023-05-05T15:58:46.865Z,28.80
2023-05-05T16:01:13.337Z,24.85
2023-05-05T16:03:39.939Z,25.15
2023-05-05T16:06:06.838Z,25.45
2023-05-05T16:08:33.339Z,35.42
2023-05-05T16:10:59.815Z,31.08
2023-05-05T16:13:26.670Z,30.83
2023-05-05T16:15:53.143Z,31.85
2023-05-05T16:18:19.642Z,23.50
2023-05-05T16:20:48.090Z,21.73
2023-05-05T16:23:14.601Z,20.50
2023-05-05T16:25:41.074Z,22.08
2023-05-05T16:28:07.512Z,19.90
2023-05-05T16:30:34.027Z,21.67
2023-05-05T16:33:00.570Z,20.58
2023-05-05T16:35:27.138Z,23.48
2023-05-05T16:37:53.687Z,17.13
2023-05-05T16:40:20.147Z,20.67
2023-05-05T16:42:46.655Z,24.50
2023-05-05T16:45:13.190Z,24.92
2023-05-05T16:47:39.798Z,22.73
2023-05-05T16:50:07.058Z,23.73
2023-05-05T16:52:33.622Z,23.02
2023-05-05T16:55:00.112Z,21.52
2023-05-05T16:57:26.957Z,24.20
2023-05-05T16:59:56.037Z,29.48
2023-05-05T17:02:22.751Z,25.55
2023-05-05T17:04:49.267Z,29.98
2023-05-05T17:07:15.771Z,29.95
2023-05-05T17:09:42.266Z,26.90
2023-05-05T17:12:08.809Z,27.65
2023-05-05T17:14:35.502Z,29.35
2023-05-05T17:17:02.048Z,30.08
2023-05-05T17:19:28.888Z,29.23
2023-05-05T17:21:55.676Z,27.92
2023-05-05T17:24:22.706Z,29.55
2023-05-05T17:26:49.281Z,28.50
2023-05-05T17:29:19.774Z,33.08
2023-05-05T17:31:46.640Z,31.75
2023-05-05T17:34:16.423Z,35.53
2023-05-05T17:36:42.903Z,34.90
2023-05-05T17:39:11.306Z,30.33
2023-05-05T17:41:37.822Z,33.15
2023-05-05T17:44:07.048Z,27.38
2023-05-05T17:46:33.535Z,31.30
2023-05-05T17:49:00.501Z,27.90
2023-05-05T17:51:28.253Z,30.92
2023-05-05T17:53:54.736Z,28.63
2023-05-05T17:56:22.112Z,34.72
2023-05-05T17:58:48.896Z,28.38
2023-05-05T18:01:26.024Z,31.13
2023-05-05T18:03:52.896Z,30.05
2023-05-05T18:06:19.460Z,29.05
2023-05-05T18:08:46.548Z,31.75
2023-05-05T18:11:13.076Z,35.33
2023-05-05T18:13:39.636Z,33.03
2023-05-05T18:16:06.682Z,37.25
2023-05-05T18:18:33.334Z,38.50
2023-05-05T18:21:00.179Z,34.42
2023-05-05T18:23:26.756Z,34.50
2023-05-05T18:25:53.249Z,32.40
2023-05-05T18:28:20.318Z,37.22
2023-05-05T18:30:49.696Z,34.90
2023-05-05T18:33:16.231Z,32.20
2023-05-05T18:35:42.736Z,34.75
2023-05-05T18:38:09.277Z,38.53
2023-05-05T18:40:39.585Z,33.42
2023-05-05T18:43:06.110Z,33.58
2023-05-05T18:45:32.605Z,37.05
2023-05-05T18:47:59.645Z,36.35
2023-05-05T18:50:26.105Z,39.40
2023-05-05T18:52:52.613Z,39.33
2023-05-05T18:55:19.141Z,37.60
2023-05-05T18:57:45.834Z,38.00
2023-05-05T19:00:12.637Z,38.88
2023-05-05T19:02:39.170Z,36.90
2023-05-05T19:05:06.421Z,39.97
2023-05-05T19:07:35.741Z,41.47
2023-05-05T19:10:04.326Z,44.42
2023-05-05T19:12:30.878Z,38.70
2023-05-05T19:14:57.439Z,36.92
2023-05-05T19:17:23.953Z,36.92
2023-05-05T19:19:50.681Z,36.25
2023-05-05T19:22:21.773Z,38.70
2023-05-05T19:24:48.248Z,36.80
2023-05-05T19:27:16.811Z,35.35
2023-05-05T19:29:43.910Z,33.50
2023-05-05T19:32:10.648Z,33.75
2023-05-05T19:34:37.320Z,33.92
2023-05-05T19:37:03.854Z,37.42
2023-05-05T19:39:30.296Z,34.92
2023-05-05T19:41:57.280Z,39.10
2023-05-05T19:44:23.870Z,39.97
2023-05-05T19:46:50.600Z,39.30
2023-05-05T19:49:17.074Z,35.35
2023-05-05T19:51:43.808Z,39.45
2023-05-05T19:54:10.362Z,39.92
2023-05-05T19:56:36.945Z,37.00
2023-05-05T19:59:05.280Z,38.90
2023-05-05T20:01:33.074Z,39.10
2023-05-05T20:04:02.572Z,40.97
2023-05-05T20:06:30.329Z,37.97
2023-05-05T20:08:56.788Z,38.28
2023-05-05T20:11:24.690Z,43.10
2023-05-05T20:13:51.746Z,40.13
2023-05-05T20:16:18.432Z,40.97
2023-05-05T20:18:45.282Z,37.90
2023-05-05T20:21:17.864Z,42.28
2023-05-05T20:23:45.869Z,46.20
2023-05-05T20:26:13.229Z,45.17
2023-05-05T20:28:41.879Z,44.72
2023-05-05T20:31:10.763Z,43.08
2023-05-05T20:33:40.554Z,41.45
2023-05-05T20:36:07.363Z,38.78
2023-05-05T20:38:33.908Z,46.78
2023-05-05T20:41:00.366Z,45.38
2023-05-05T20:43:26.969Z,47.55
2023-05-05T20:45:53.513Z,46.28
2023-05-05T20:48:19.957Z,47.40
2023-05-05T20:50:51.128Z,43.95
2023-05-05T20:53:19.124Z,45.58
2023-05-05T20:55:45.909Z,41.33
2023-05-05T20:58:12.645Z,40.95
2023-05-05T21:00:39.292Z,41.15
2023-05-05T21:03:05.977Z,41.95
2023-05-05T21:05:32.608Z,41.67
2023-05-05T21:08:00.799Z,44.45
2023-05-05T21:10:29.163Z,42.55
2023-05-05T21:12:57.790Z,44.67
2023-05-05T21:15:24.998Z,45.38
2023-05-05T21:17:51.711Z,41.55
2023-05-05T21:20:21.293Z,38.90
2023-05-05T21:22:47.792Z,41.67
2023-05-05T21:25:17.184Z,42.03
2023-05-05T21:27:47.266Z,40.42
2023-05-05T21:30:14.183Z,44.30
2023-05-05T21:32:45.289Z,41.30
2023-05-05T21:35:11.963Z,42.77
2023-05-05T21:37:39.177Z,45.15
2023-05-05T21:40:13.253Z,42.35
2023-05-05T21:42:40.974Z,45.78
2023-05-05T21:45:08.029Z,47.63
2023-05-05T21:47:38.175Z,51.13
2023-05-05T21:50:05.482Z,52.13
2023-05-05T21:52:41.387Z,57.38
2023-05-05T21:55:10.517Z,59.40
2023-05-05T21:57:37.018Z,59.78
2023-05-05T22:00:05.928Z,62.88
2023-05-05T22:02:33.589Z,68.35
2023-05-05T22:05:00.121Z,61.60
2023-05-05T22:07:26.627Z,67.68
2023-05-05T22:09:53.079Z,65.68
2023-05-05T22:12:19.544Z,63.28
2023-05-05T22:14:46.118Z,65.20
2023-05-05T22:17:12.798Z,63.28
2023-05-05T22:19:42.054Z,69.32
2023-05-05T22:22:14.350Z,66.00
2023-05-05T22:24:44.312Z,58.63
2023-05-05T22:27:10.771Z,59.72
2023-05-05T22:29:37.622Z,58.08
2023-05-05T22:32:04.124Z,61.83
2023-05-05T22:34:30.704Z,66.93
2023-05-05T22:37:00.398Z,68.32
2023-05-05T22:39:27.132Z,67.57
2023-05-05T22:41:57.566Z,57.55
2023-05-05T22:44:27.602Z,60.10
2023-05-05T22:46:54.113Z,66.18
2023-05-05T22:49:21.792Z,68.85
2023-05-05T22:51:48.530Z,57.92
2023-05-05T22:54:15.022Z,57.15
2023-05-05T22:56:41.461Z,62.72
2023-05-05T22:59:10.488Z,56.35
2023-05-05T23:01:37.588Z,51.17
2023-05-05T23:04:04.544Z,50.17
2023-05-05T23:06:32.150Z,51.97
2023-05-05T23:08:58.665Z,52.10
2023-05-05T23:11:26.357Z,60.25
2023-05-05T23:13:53.376Z,58.08
2023-05-05T23:16:19.892Z,58.47
2023-05-05T23:18:46.429Z,74.35
2023-05-05T23:21:12.903Z,54.50
2023-05-05T23:23:42.235Z,53.55
2023-05-05T23:26:13.150Z,62.10
2023-05-05T23:28:42.318Z,50.88
2023-05-05T23:31:09.162Z,53.95
2023-05-05T23:33:35.633Z,55.83
2023-05-05T23:36:02.127Z,52.72
2023-05-05T23:38:28.622Z,56.15
2023-05-05T23:40:58.020Z,56.80
2023-05-05T23:43:24.804Z,54.17
2023-05-05T23:45:51.547Z,55.60
2023-05-05T23:48:18.030Z,57.92
2023-05-05T23:50:44.470Z,56.90
2023-05-05T23:53:10.990Z,56.42
2023-05-05T23:55:40.052Z,56.47
2023-05-05T23:58:06.585Z,54.55
